Time;durP1;ratioP1;P1;durP2;ratioP2;P2;SDS_P1;SDS_P2;PMS_P1;PMS_P2;Temp;Humidity;BMP_temperature;BMP_pressure;BME280_temperature;BME280_humidity;BME280_pressure;Samples;Min_cycle;Max_cycle;Signal;HPM_P1;HPM_P2
2022/06/28 00:01:20;;;;;;;2.65;2.20;;;;;;;16.10;72.31;99433.16;2619515;54;20033;-66
2022/06/28 00:03:50;;;;;;;4.57;2.70;;;;;;;15.97;72.46;99435.88;2618757;54;20086;-66
2022/06/28 00:06:20;;;;;;;4.72;2.63;;;;;;;15.83;72.46;99432.44;2618796;54;20038;-65
2022/06/28 00:08:50;;;;;;;3.78;1.90;;;;;;;15.64;73.29;99430.66;2618754;54;20777;-66
2022/06/28 00:11:20;;;;;;;4.32;2.00;;;;;;;15.53;74.20;99427.59;2618979;54;20035;-67
2022/06/28 00:13:52;;;;;;;4.10;2.00;;;;;;;15.49;74.23;99431.72;2618547;54;20542;-66
2022/06/28 00:16:19;;;;;;;4.90;2.08;;;;;;;15.48;74.35;99427.41;2619010;54;20041;-65
2022/06/28 00:18:51;;;;;;;2.85;2.13;;;;;;;15.53;74.89;99424.13;2618961;54;20058;-66
2022/06/28 00:21:21;;;;;;;5.22;1.98;;;;;;;15.54;74.57;99431.06;2618919;54;20130;-66
2022/06/28 00:23:50;;;;;;;2.72;2.22;;;;;;;15.48;74.86;99422.09;2618708;54;20040;-66
2022/06/28 00:26:20;;;;;;;5.82;2.58;;;;;;;15.41;74.97;99425.78;2619032;54;20396;-65
2022/06/28 00:28:52;;;;;;;2.25;1.88;;;;;;;15.44;75.39;99428.84;2619996;54;20030;-66
2022/06/28 00:31:25;;;;;;;3.45;2.13;;;;;;;15.44;75.23;99423.53;2619138;46;20031;-66
2022/06/28 00:33:54;;;;;;;5.57;2.38;;;;;;;15.48;75.50;99423.94;2618817;54;20034;-65
2022/06/28 00:36:24;;;;;;;2.40;2.20;;;;;;;15.54;75.31;99426.56;2618907;39;20415;-65
2022/06/28 00:38:55;;;;;;;2.50;2.30;;;;;;;15.46;74.52;99428.63;2618733;54;20589;-66
2022/06/28 00:41:25;;;;;;;3.70;2.40;;;;;;;15.31;75.22;99426.22;2619062;54;20065;-66
2022/06/28 00:43:58;;;;;;;3.10;2.40;;;;;;;15.31;74.97;99434.22;2618670;54;20070;-65
2022/06/28 00:46:33;;;;;;;4.47;2.47;;;;;;;15.24;75.44;99442.22;2618638;47;20034;-65
2022/06/28 00:49:03;;;;;;;4.05;2.15;;;;;;;15.32;75.22;99433.19;2618134;54;20040;-66
2022/06/28 00:51:33;;;;;;;2.20;2.00;;;;;;;15.39;75.37;99428.69;2620161;39;20490;-64
2022/06/28 00:54:04;;;;;;;2.38;1.80;;;;;;;15.47;74.65;99430.28;2622762;54;20114;-66
2022/06/28 00:56:34;;;;;;;3.83;2.05;;;;;;;15.46;74.19;99424.13;2622184;54;20126;-66
2022/06/28 00:59:06;;;;;;;2.42;1.60;;;;;;;15.42;73.86;99422.91;2618596;54;20064;-65
2022/06/28 01:01:36;;;;;;;6.72;2.38;;;;;;;15.38;73.76;99421.69;2618490;54;20043;-66
2022/06/28 01:04:06;;;;;;;2.17;1.90;;;;;;;15.33;73.65;99424.97;2617829;54;20034;-65
2022/06/28 01:06:38;;;;;;;4.38;2.65;;;;;;;15.31;74.40;99426.22;2618223;54;20030;-66
2022/06/28 01:09:09;;;;;;;3.20;1.63;;;;;;;15.34;74.06;99431.13;2617937;47;20055;-66
2022/06/28 01:11:39;;;;;;;3.53;1.60;;;;;;;15.36;73.56;99429.91;2618122;51;20264;-66
2022/06/28 01:14:11;;;;;;;4.90;2.47;;;;;;;15.32;73.67;99430.53;2617854;47;20056;-66
2022/06/28 01:17:01;;;;;;;3.53;1.90;;;;;;;15.29;74.19;99433.59;2618695;54;20550;-65
2022/06/28 01:19:49;;;;;;;3.58;1.73;;;;;;;15.25;74.01;99435.84;2617504;54;20050;-66
2022/06/28 01:22:44;;;;;;;4.22;1.83;;;;;;;15.18;73.53;99436.88;2617666;54;20037;-65
2022/06/28 01:25:18;;;;;;;3.75;1.90;;;;;;;15.01;73.93;99431.97;2618233;47;20041;-67
2022/06/28 01:27:51;;;;;;;3.53;1.88;;;;;;;14.84;74.88;99434.25;2621566;54;20038;-65
2022/06/28 01:30:20;;;;;;;3.47;1.83;;;;;;;14.81;74.77;99439.16;2621211;54;20160;-66
2022/06/28 01:33:17;;;;;;;4.25;2.30;;;;;;;14.75;74.88;99435.47;2621529;54;20034;-64
2022/06/28 01:35:47;;;;;;;2.85;2.08;;;;;;;14.65;75.38;99432.38;2621189;47;20034;-65
2022/06/28 01:38:19;;;;;;;2.30;1.83;;;;;;;14.59;75.53;99436.69;2621187;39;20812;-65
2022/06/28 01:40:49;;;;;;;2.80;2.10;;;;;;;14.59;76.23;99427.88;2620799;47;20038;-65
2022/06/28 01:43:21;;;;;;;5.93;1.67;;;;;;;14.71;75.83;99434.25;2620838;46;20027;-65
2022/06/28 01:45:55;;;;;;;2.38;1.88;;;;;;;14.77;75.35;99430.75;2620871;47;20035;-65
2022/06/28 01:48:25;;;;;;;2.45;2.25;;;;;;;14.73;75.11;99431.38;2620838;53;20030;-66
2022/06/28 01:51:04;;;;;;;2.10;1.90;;;;;;;14.58;75.73;99432.41;2621743;39;20437;-65
2022/06/28 01:53:39;;;;;;;3.08;2.20;;;;;;;14.48;75.55;99429.25;2620252;47;20074;-65
2022/06/28 01:56:39;;;;;;;2.40;2.08;;;;;;;14.38;76.19;99426.19;2618900;47;20054;-66
2022/06/28 01:59:17;;;;;;;4.97;2.63;;;;;;;14.32;76.70;99433.13;2618494;54;20185;-65
2022/06/28 02:01:57;;;;;;;3.25;2.08;;;;;;;14.25;76.96;99429.66;2618806;47;20061;-65
2022/06/28 02:04:32;;;;;;;2.72;2.20;;;;;;;14.25;77.12;99436.81;2620091;50;20031;-65
2022/06/28 02:07:06;;;;;;;;;;;;;;;14.25;77.34;99442.94;2619146;54;20038;-65
2022/06/28 02:09:42;;;;;;;2.60;2.38;;;;;;;14.21;77.01;99436.38;2617895;47;19951;-66
2022/06/28 02:12:13;;;;;;;1.92;1.83;;;;;;;14.20;77.15;99433.91;2617645;47;20037;-68
2022/06/28 02:14:46;;;;;;;2.70;2.03;;;;;;;14.18;77.48;99433.31;2617962;54;20038;-67
2022/06/28 02:17:15;;;;;;;3.03;1.80;;;;;;;14.15;77.02;99444.34;2617976;47;20049;-67
2022/06/28 02:19:45;;;;;;;5.90;2.00;;;;;;;14.13;77.28;99440.03;2617659;51;20029;-66
2022/06/28 02:22:15;;;;;;;2.55;2.15;;;;;;;14.14;77.30;99438.19;2617826;47;20038;-65
2022/06/28 02:24:48;;;;;;;3.60;2.58;;;;;;;14.08;77.71;99444.31;2618195;54;20045;-66
2022/06/28 02:27:18;;;;;;;2.05;1.63;;;;;;;14.02;77.81;99437.97;2619059;39;20451;-67
2022/06/28 02:29:48;;;;;;;3.53;2.20;;;;;;;14.01;77.73;99435.50;2617780;47;20033;-67
2022/06/28 02:32:18;;;;;;;4.05;2.40;;;;;;;14.08;77.91;99438.97;2619046;54;20037;-66
2022/06/28 02:40:25;;;;;;;6.78;2.50;;;;;;;13.96;77.97;99448.56;2618893;54;20023;-65
2022/06/28 02:42:56;;;;;;;3.25;2.35;;;;;;;13.94;77.71;99445.28;2619187;54;20612;-65
2022/06/28 02:45:29;;;;;;;4.13;3.00;;;;;;;13.96;78.50;99438.75;2618670;47;20026;-66
2022/06/28 02:48:00;;;;;;;3.97;2.80;;;;;;;14.01;78.14;99449.63;2618555;54;20565;-66
2022/06/28 02:50:29;;;;;;;4.32;3.50;;;;;;;14.04;77.60;99449.22;2618473;54;20037;-66
2022/06/28 02:52:59;;;;;;;2.22;2.03;;;;;;;14.04;77.52;99457.19;2618405;54;20042;-66
2022/06/28 02:55:32;;;;;;;3.75;2.15;;;;;;;13.93;77.87;99456.94;2618282;54;20134;-65
2022/06/28 02:58:02;;;;;;;4.00;1.70;;;;;;;13.91;78.02;99456.31;2618454;54;20035;-65
2022/06/28 03:00:32;;;;;;;2.90;1.90;;;;;;;13.97;77.73;99461.66;2618191;46;20579;-65
2022/06/28 03:03:02;;;;;;;4.38;3.78;;;;;;;14.11;77.50;99463.34;2617949;47;20042;-65
2022/06/28 03:05:32;;;;;;;3.20;2.80;;;;;;;14.21;77.04;99470.97;2618398;47;20035;-66
2022/06/28 03:08:08;;;;;;;2.55;1.83;;;;;;;14.27;76.57;99472.81;2618978;54;20042;-66
2022/06/28 03:10:42;;;;;;;2.67;2.47;;;;;;;14.02;76.11;99471.69;2618018;54;20035;-66
2022/06/28 03:13:12;;;;;;;5.38;2.35;;;;;;;13.95;77.03;99481.47;2617963;47;20035;-65
2022/06/28 03:15:42;;;;;;;5.13;2.92;;;;;;;13.94;76.60;99472.69;2618122;47;20057;-66
2022/06/28 03:18:11;;;;;;;4.32;2.33;;;;;;;13.80;76.66;99474.47;2618248;54;20074;-66
2022/06/28 03:20:41;;;;;;;3.25;1.88;;;;;;;13.67;76.76;99487.66;2618325;47;20541;-66
2022/06/28 03:23:11;;;;;;;2.15;2.05;;;;;;;13.70;76.71;99492.59;2617984;47;20022;-66
2022/06/28 03:25:45;;;;;;;2.55;2.15;;;;;;;13.67;77.00;99494.81;2618242;47;20026;-66
2022/06/28 03:28:15;;;;;;;5.93;2.28;;;;;;;13.66;77.54;99491.34;2617933;54;20023;-66
2022/06/28 03:30:48;;;;;;;3.78;2.50;;;;;;;13.63;76.89;99491.72;2619064;54;20534;-66
2022/06/28 03:33:17;;;;;;;3.97;2.40;;;;;;;13.53;77.36;99500.06;2621117;47;20028;-66
2022/06/28 03:35:47;;;;;;;4.55;3.05;;;;;;;13.49;77.10;99505.97;2623936;47;20027;-66
2022/06/28 03:38:17;;;;;;;3.25;2.65;;;;;;;13.52;77.57;99511.69;2618494;54;20041;-66
2022/06/28 03:41:08;;;;;;;3.67;2.47;;;;;;;13.63;77.54;99512.97;2619171;54;20041;-65
2022/06/28 03:43:39;;;;;;;;;;;;;;;13.68;76.71;99515.06;2618415;50;20561;-65
2022/06/28 03:46:09;;;;;;;4.63;2.22;;;;;;;13.60;77.02;99518.69;2619112;54;19957;-67
2022/06/28 03:48:44;;;;;;;4.97;2.40;;;;;;;13.60;76.89;99519.53;2618430;54;20034;-65
2022/06/28 03:51:23;;;;;;;5.22;2.40;;;;;;;13.68;77.37;99515.91;2618807;54;20562;-65
2022/06/28 03:54:20;;;;;;;3.90;2.35;;;;;;;13.67;76.51;99518.72;2617900;54;20030;-67
2022/06/28 03:57:02;;;;;;;3.60;2.22;;;;;;;13.62;77.07;99519.31;2618001;51;20065;-66
2022/06/28 03:59:31;;;;;;;3.53;2.30;;;;;;;13.59;77.00;99523.19;2618229;54;20034;-65
2022/06/28 04:02:01;;;;;;;2.97;2.30;;;;;;;13.61;76.84;99517.69;2588555;47;20034;-68
2022/06/28 04:04:32;;;;;;;2.65;2.35;;;;;;;13.59;77.04;99523.19;2618996;54;20606;-67
2022/06/28 08:37:42;;;;;;;2.42;1.33;;;;;;;21.13;46.92;99412.38;2594657;46;20058;-66
2022/06/28 08:40:13;;;;;;;1.52;1.17;;;;;;;20.97;47.55;99409.44;2621591;47;20069;-67
2022/06/28 08:42:50;;;;;;;4.05;1.88;;;;;;;21.00;46.91;99405.47;2623637;39;20422;-66
2022/06/28 08:45:20;;;;;;;3.60;1.52;;;;;;;21.06;47.18;99401.78;2622013;54;20034;-67
2022/06/28 08:47:53;;;;;;;2.60;1.17;;;;;;;20.91;46.75;99398.88;2619198;54;20576;-67
2022/06/28 08:50:33;;;;;;;2.33;1.40;;;;;;;20.95;46.82;99397.34;2618954;54;20038;-67
2022/06/28 08:53:08;;;;;;;2.95;1.63;;;;;;;21.18;46.69;99390.94;2617791;54;20065;-67
2022/06/28 08:55:39;;;;;;;2.60;1.60;;;;;;;21.41;45.37;99381.88;2618618;54;20019;-67
2022/06/28 08:58:10;;;;;;;3.35;1.23;;;;;;;21.48;44.50;99390.59;2618076;54;20034;-67
2022/06/28 09:00:40;;;;;;;1.67;1.35;;;;;;;21.49;43.92;99384.13;2617914;54;20126;-67
2022/06/28 09:03:10;;;;;;;1.67;1.23;;;;;;;21.48;44.67;99394.06;2617559;54;20035;-66
2022/06/28 09:05:40;;;;;;;2.38;1.50;;;;;;;21.40;44.96;99377.56;2617890;54;20054;-67
2022/06/28 09:08:12;;;;;;;2.30;1.35;;;;;;;21.44;44.62;99367.94;2617936;54;20034;-67
2022/06/28 09:10:42;;;;;;;1.40;1.13;;;;;;;21.46;43.72;99369.28;2617924;54;20030;-67
2022/06/28 09:13:21;;;;;;;6.65;1.20;;;;;;;21.56;43.81;99365.13;2617681;54;20545;-67
2022/06/28 09:15:54;;;;;;;3.33;1.30;;;;;;;21.44;44.32;99362.56;2617944;54;20592;-68
2022/06/28 09:18:26;;;;;;;2.55;1.30;;;;;;;21.64;42.82;99362.00;2617239;54;20073;-67
2022/06/28 09:20:59;;;;;;;2.05;1.13;;;;;;;21.67;43.09;99356.09;2617872;54;20034;-67
2022/06/28 09:23:34;;;;;;;3.47;1.42;;;;;;;21.79;42.10;99351.38;2617622;54;20553;-67
2022/06/28 09:26:07;;;;;;;3.03;1.33;;;;;;;21.86;42.74;99348.50;2617752;54;20041;-66
2022/06/28 09:28:41;;;;;;;1.30;1.10;;;;;;;21.73;42.63;99347.03;2617836;54;20026;-67
2022/06/28 09:31:16;;;;;;;1.67;1.27;;;;;;;21.87;42.84;99340.16;2617855;54;20301;-66
2022/06/28 09:33:48;;;;;;;2.20;1.30;;;;;;;22.00;42.50;99339.78;2616910;47;20069;-67
2022/06/28 09:36:19;;;;;;;2.72;1.35;;;;;;;22.11;41.44;99348.75;2617811;54;20035;-66
2022/06/28 09:38:52;;;;;;;2.88;1.33;;;;;;;22.13;41.93;99341.28;2617881;54;20022;-66
2022/06/28 09:41:23;;;;;;;44.53;2.13;;;;;;;22.12;42.13;99333.41;2617512;54;20030;-66
2022/06/28 09:43:59;;;;;;;2.10;1.38;;;;;;;22.11;42.80;99324.53;2617498;54;20038;-66
2022/06/28 09:46:30;;;;;;;1.70;1.17;;;;;;;22.15;43.17;99325.66;2617729;54;20541;-66
2022/06/28 09:49:01;;;;;;;4.03;1.40;;;;;;;22.23;41.65;99316.31;2617729;54;20050;-67
2022/06/28 09:51:33;;;;;;;1.80;1.30;;;;;;;22.29;41.62;99319.84;2617816;54;20031;-66
2022/06/28 09:54:08;;;;;;;2.00;1.38;;;;;;;22.30;40.98;99322.31;2616712;47;20203;-66
2022/06/28 09:56:53;;;;;;;3.00;1.23;;;;;;;22.33;40.17;99324.50;2617590;54;20049;-67
2022/06/28 09:59:24;;;;;;;1.98;1.10;;;;;;;22.36;40.19;99323.16;2617913;54;20047;-67
2022/06/28 10:01:55;;;;;;;1.30;1.02;;;;;;;22.36;39.23;99312.38;2617730;54;20549;-67
2022/06/28 10:04:27;;;;;;;2.70;1.13;;;;;;;22.44;37.74;99314.59;2617347;47;20034;-67
2022/06/28 10:06:58;;;;;;;1.13;0.90;;;;;;;22.48;37.37;99305.75;2617600;47;20041;-66
2022/06/28 10:09:30;;;;;;;2.78;1.10;;;;;;;22.48;37.30;99302.25;2618110;54;20640;-67
2022/06/28 10:17:40;;;;;;;2.40;0.98;;;;;;;22.54;37.61;99300.41;2618131;54;20030;-67
2022/06/28 10:20:12;;;;;;;2.38;1.30;;;;;;;22.62;37.27;99298.03;2617765;54;20045;-67
2022/06/28 10:22:42;;;;;;;1.98;1.25;;;;;;;22.65;37.04;99294.00;2616949;54;20026;-67
2022/06/28 10:25:21;;;;;;;5.03;1.30;;;;;;;22.86;38.02;99293.06;2617937;54;20130;-67
2022/06/28 10:27:52;;;;;;;2.25;1.38;;;;;;;23.02;37.47;99285.88;2617752;54;20031;-67
2022/06/28 10:30:31;;;;;;;1.70;1.23;;;;;;;23.01;37.92;99278.88;2617794;54;20034;-68
2022/06/28 10:33:07;;;;;;;1.48;0.90;;;;;;;23.06;37.37;99281.59;2617723;39;20529;-67
2022/06/28 10:36:13;;;;;;;1.67;1.35;;;;;;;22.97;37.16;99277.78;2617776;54;20038;-66
2022/06/28 10:39:17;;;;;;;1.35;1.23;;;;;;;22.88;35.85;99271.25;2617656;54;20030;-66
2022/06/28 10:41:51;;;;;;;5.78;1.20;;;;;;;23.11;34.60;99270.03;2617713;54;20031;-66
2022/06/28 10:44:23;;;;;;;1.73;1.00;;;;;;;23.31;35.03;99266.59;2616739;54;20035;-65
2022/06/28 10:46:57;;;;;;;3.28;1.10;;;;;;;23.34;35.15;99268.75;2616909;54;20086;-67
2022/06/28 10:49:26;;;;;;;2.70;1.27;;;;;;;23.25;35.23;99265.75;2617613;54;20034;-66
2022/06/28 10:52:15;;;;;;;1.33;1.23;;;;;;;23.42;34.18;99257.47;2617330;47;20046;-67
2022/06/28 10:55:22;;;;;;;3.47;1.35;;;;;;;23.46;34.18;99262.06;2618536;54;20130;-66
2022/06/28 10:58:08;;;;;;;1.98;1.02;;;;;;;23.52;34.11;99252.09;2618926;54;20031;-67
2022/06/28 11:00:53;;;;;;;2.80;1.10;;;;;;;23.34;34.92;99248.00;2618513;54;20033;-66
2022/06/28 11:03:23;;;;;;;3.28;1.08;;;;;;;23.39;33.97;99247.19;2618368;54;20081;-68
2022/06/28 11:05:54;;;;;;;3.63;1.10;;;;;;;23.33;33.79;99253.66;2618004;54;20041;-67
2022/06/28 11:08:44;;;;;;;1.55;1.10;;;;;;;23.52;33.67;99257.50;2618354;54;20027;-67
2022/06/28 11:11:14;;;;;;;2.05;1.05;;;;;;;23.63;33.41;99252.91;2618427;54;20033;-67
2022/06/28 11:13:46;;;;;;;2.63;1.00;;;;;;;23.57;33.41;99252.09;2620276;54;20038;-67
2022/06/28 11:16:46;;;;;;;3.33;1.20;;;;;;;23.56;34.53;99241.59;2624374;54;20026;-68
2022/06/28 11:19:17;;;;;;;1.95;1.10;;;;;;;23.50;34.03;99240.75;2624319;54;20023;-68
2022/06/28 11:21:47;;;;;;;3.45;1.20;;;;;;;23.46;33.65;99236.97;2624914;39;20443;-67
2022/06/28 11:24:17;;;;;;;2.97;1.08;;;;;;;23.55;33.82;99232.66;2623419;54;20018;-67
2022/06/28 11:29:32;;;;;;;2.80;1.25;;;;;;;23.86;33.63;99221.94;2621809;51;20031;-69
2022/06/28 11:32:02;;;;;;;1.80;1.00;;;;;;;23.62;33.17;99205.44;2622007;54;20042;-66
2022/06/28 11:34:32;;;;;;;1.73;1.20;;;;;;;23.56;33.59;99198.41;2621878;54;20264;-67
2022/06/28 11:37:02;;;;;;;2.97;1.15;;;;;;;23.77;33.56;99191.97;2619842;54;20038;-68
2022/06/28 11:39:31;;;;;;;2.45;1.42;;;;;;;23.88;33.76;99182.81;2619494;54;20037;-68
2022/06/28 11:42:01;;;;;;;2.75;1.25;;;;;;;23.94;33.50;99184.41;2619151;54;20034;-68
2022/06/28 11:44:33;;;;;;;2.90;1.10;;;;;;;24.06;33.37;99180.63;2619231;54;20038;-68
2022/06/28 11:47:03;;;;;;;2.50;1.27;;;;;;;24.06;33.76;99176.03;2618373;54;20023;-67
2022/06/28 11:49:34;;;;;;;2.53;1.50;;;;;;;24.09;33.18;99163.91;2618345;47;20271;-67
2022/06/28 11:52:04;;;;;;;3.88;1.85;;;;;;;24.16;32.80;99170.59;2618137;54;20034;-67
2022/06/28 11:54:34;;;;;;;2.00;1.25;;;;;;;24.04;32.82;99170.09;2618271;39;20434;-66
2022/06/28 11:57:15;;;;;;;2.88;1.38;;;;;;;24.04;33.45;99166.56;2617544;54;20038;-66
2022/06/28 11:59:59;;;;;;;4.93;0.90;;;;;;;24.00;33.33;99160.09;2618176;54;20022;-67
2022/06/28 12:02:47;;;;;;;2.20;1.33;;;;;;;24.11;33.02;99156.31;2617817;54;20280;-66
2022/06/28 12:05:16;;;;;;;2.17;1.17;;;;;;;24.23;32.15;99163.03;2618105;54;20034;-66
2022/06/28 12:07:46;;;;;;;3.13;1.13;;;;;;;24.22;32.49;99168.72;2618205;54;20026;-66
2022/06/28 12:10:23;;;;;;;2.60;1.23;;;;;;;24.32;32.53;99178.69;2618249;54;20557;-67
2022/06/28 12:12:53;;;;;;;1.98;1.00;;;;;;;24.28;32.31;99166.81;2617280;51;20038;-67
2022/06/28 12:15:31;;;;;;;4.65;1.50;;;;;;;24.27;32.67;99163.31;2617398;47;20030;-67
2022/06/28 12:18:03;;;;;;;1.92;0.90;;;;;;;24.43;32.51;99164.91;2618036;54;20022;-67
2022/06/28 12:20:35;;;;;;;1.85;0.98;;;;;;;24.54;31.50;99173.00;2618115;54;20039;-67
2022/06/28 12:23:06;;;;;;;1.58;1.10;;;;;;;24.46;32.25;99164.38;2618022;54;20605;-67
2022/06/28 12:25:36;;;;;;;2.13;0.90;;;;;;;24.54;31.55;99165.72;2618310;54;20038;-67
2022/06/28 12:28:06;;;;;;;1.48;0.90;;;;;;;24.52;32.07;99157.06;2618135;54;20026;-67
2022/06/28 12:30:39;;;;;;;2.05;1.00;;;;;;;24.69;31.79;99146.72;2617526;54;20521;-67
2022/06/28 12:33:09;;;;;;;3.33;1.17;;;;;;;24.82;31.44;99134.50;2617737;54;20030;-67
2022/06/28 12:35:39;;;;;;;3.65;1.20;;;;;;;24.95;31.40;99122.28;2617916;54;20022;-67
2022/06/28 12:38:10;;;;;;;1.63;0.80;;;;;;;24.89;31.08;99117.97;2618105;54;20818;-67
2022/06/28 12:40:39;;;;;;;1.70;1.17;;;;;;;24.79;31.20;99113.44;2617353;47;20035;-68
2022/06/28 12:43:09;;;;;;;4.13;1.10;;;;;;;24.86;31.30;99113.09;2617036;54;20034;-67
2022/06/28 12:45:41;;;;;;;1.67;0.95;;;;;;;24.64;31.33;99114.31;2618459;39;20434;-67
2022/06/28 12:48:12;;;;;;;1.03;0.77;;;;;;;24.77;31.81;99115.59;2618121;54;20037;-66
2022/06/28 12:50:41;;;;;;;2.95;1.33;;;;;;;24.96;31.19;99115.78;2617587;54;20061;-66
2022/06/28 12:53:11;;;;;;;4.72;0.85;;;;;;;24.98;31.27;99112.78;2617181;46;20031;-66
2022/06/28 12:55:41;;;;;;;3.55;1.25;;;;;;;24.96;31.44;99118.47;2618077;54;20026;-67
2022/06/28 12:58:11;;;;;;;1.27;1.05;;;;;;;25.01;31.04;99113.03;2617517;47;20034;-67
2022/06/28 13:00:44;;;;;;;2.88;1.02;;;;;;;25.08;30.15;99108.13;2618470;54;20035;-67
2022/06/28 13:03:14;;;;;;;3.33;1.00;;;;;;;25.22;30.48;99112.94;2617166;47;20530;-67
2022/06/28 13:05:44;;;;;;;1.27;0.70;;;;;;;25.22;29.93;99112.94;2619483;54;20033;-66
2022/06/28 13:08:13;;;;;;;2.17;1.00;;;;;;;25.17;30.40;99109.16;2617817;54;20030;-67
2022/06/28 13:10:43;;;;;;;2.97;1.10;;;;;;;25.28;29.77;99115.31;2619072;54;20564;-67
2022/06/28 13:13:17;;;;;;;1.73;0.95;;;;;;;25.46;29.40;99116.53;2618895;54;20053;-67
2022/06/28 13:15:50;;;;;;;0.93;0.90;;;;;;;25.54;28.89;99107.00;2617531;54;20038;-66
2022/06/28 13:18:19;;;;;;;3.92;1.15;;;;;;;25.50;28.89;99092.44;2617865;54;20038;-67
2022/06/28 13:20:49;;;;;;;1.45;0.90;;;;;;;25.45;29.89;99080.56;2618088;54;20044;-65
2022/06/28 13:23:20;;;;;;;2.05;0.95;;;;;;;25.60;30.23;99074.22;2617494;54;20086;-66
2022/06/28 13:25:50;;;;;;;3.90;1.20;;;;;;;25.86;29.21;99074.78;2617563;54;20042;-66
2022/06/28 13:28:20;;;;;;;4.55;1.33;;;;;;;25.98;28.92;99060.06;2618235;39;20507;-68
2022/06/28 13:30:52;;;;;;;4.97;1.10;;;;;;;25.90;28.22;99065.00;2617526;54;20681;-67
2022/06/28 13:33:22;;;;;;;1.60;1.10;;;;;;;25.62;29.09;99047.66;2617809;46;20054;-68
2022/06/28 13:35:51;;;;;;;2.88;0.90;;;;;;;25.70;28.98;99051.63;2618181;54;20022;-68
2022/06/28 13:38:21;;;;;;;1.55;1.05;;;;;;;25.74;28.95;99051.88;2618382;54;20554;-69
2022/06/28 13:40:51;;;;;;;0.80;0.80;;;;;;;25.78;29.63;99045.63;2618256;54;20557;-71
2022/06/28 13:43:36;;;;;;;1.83;0.98;;;;;;;25.77;28.93;99040.47;2617538;54;20022;-67
2022/06/28 13:46:10;;;;;;;1.92;0.98;;;;;;;25.73;28.64;99037.53;2617887;54;20038;-67
2022/06/28 13:48:41;;;;;;;3.05;0.88;;;;;;;25.77;28.59;99035.06;2617962;54;20550;-66
2022/06/28 13:51:13;;;;;;;2.40;1.25;;;;;;;25.73;29.65;99024.00;2617473;47;20030;-66
2022/06/28 13:53:43;;;;;;;2.10;1.20;;;;;;;25.80;29.71;99012.84;2617726;54;20053;-67
2022/06/28 13:56:13;;;;;;;2.13;0.90;;;;;;;25.74;29.70;99020.19;2617776;54;20548;-67
2022/06/28 13:58:42;;;;;;;1.50;1.02;;;;;;;25.89;29.96;99020.06;2617783;54;20061;-68
2022/06/28 14:01:15;;;;;;;1.60;1.10;;;;;;;26.06;29.29;99019.59;2618145;54;20042;-66
2022/06/28 14:03:45;;;;;;;0.90;0.80;;;;;;;26.15;29.16;99022.47;2617948;54;20042;-68
2022/06/28 14:06:15;;;;;;;1.38;1.00;;;;;;;26.12;29.21;99015.72;2617538;47;20061;-67
2022/06/28 14:08:45;;;;;;;1.70;0.90;;;;;;;25.77;28.92;99008.00;2618564;54;20034;-69
2022/06/28 14:11:15;;;;;;;2.70;1.23;;;;;;;25.94;29.33;99014.59;2618825;54;20538;-68
2022/06/28 14:13:45;;;;;;;5.45;1.20;;;;;;;25.89;29.29;99000.31;2619370;31;20527;-67
2022/06/28 14:16:18;;;;;;;2.33;0.90;;;;;;;25.93;29.48;98998.63;2618314;54;20062;-69
2022/06/28 14:18:47;;;;;;;1.40;0.70;;;;;;;26.13;28.04;98998.38;2617524;47;20037;-66
2022/06/28 14:21:17;;;;;;;2.35;1.20;;;;;;;26.31;28.15;98999.50;2617462;47;20041;-67
2022/06/28 14:23:47;;;;;;;2.35;1.00;;;;;;;26.42;27.51;98998.28;2617222;54;20034;-67
2022/06/28 14:26:17;;;;;;;1.83;0.80;;;;;;;26.39;27.02;98996.16;2619397;54;20569;-70
2022/06/28 14:28:49;;;;;;;1.27;1.00;;;;;;;26.47;27.12;99004.75;2619408;54;20038;-67
2022/06/28 14:31:21;;;;;;;1.05;0.93;;;;;;;26.49;28.14;99011.47;2618885;54;20027;-67
2022/06/28 14:34:13;;;;;;;1.98;1.20;;;;;;;26.71;27.89;99015.53;2619274;39;20406;-67
2022/06/28 14:36:45;;;;;;;1.83;1.13;;;;;;;26.93;27.51;99013.03;2618483;54;20034;-68
2022/06/28 14:39:15;;;;;;;3.53;1.08;;;;;;;27.19;27.65;99007.22;2619263;47;20049;-67
2022/06/28 14:41:45;;;;;;;1.67;1.13;;;;;;;27.34;27.40;99006.97;2620381;54;20031;-67
2022/06/28 14:44:14;;;;;;;1.15;0.93;;;;;;;27.33;26.68;99018.94;2622699;54;20641;-67
2022/06/28 14:46:47;;;;;;;1.88;0.75;;;;;;;27.17;26.91;99011.03;2621625;54;20045;-67
2022/06/28 14:49:17;;;;;;;2.63;1.00;;;;;;;27.19;26.59;99007.22;2621227;54;20014;-68
2022/06/28 14:51:47;;;;;;;1.27;1.10;;;;;;;27.12;26.03;98996.75;2622524;54;20035;-68
2022/06/28 14:54:17;;;;;;;0.82;0.80;;;;;;;26.85;26.56;98987.38;2623191;54;20045;-67
2022/06/28 14:56:47;;;;;;;2.70;1.10;;;;;;;26.73;26.72;98987.00;2623550;54;20033;-66
2022/06/28 14:59:16;;;;;;;0.82;0.73;;;;;;;26.66;26.77;98987.41;2624299;54;20026;-68
2022/06/28 15:01:48;;;;;;;1.27;0.98;;;;;;;26.57;27.42;98991.03;2625337;54;20038;-68
2022/06/28 15:04:18;;;;;;;1.77;0.93;;;;;;;26.68;27.00;98984.38;2624177;54;20034;-67
2022/06/28 15:06:48;;;;;;;0.82;0.80;;;;;;;26.98;26.85;98990.44;2624206;54;20049;-69
2022/06/28 15:09:17;;;;;;;2.13;1.05;;;;;;;27.16;26.08;98990.44;2621471;54;20541;-66
2022/06/28 15:11:47;;;;;;;3.63;1.70;;;;;;;27.29;26.43;98982.63;2619307;54;20042;-67
2022/06/28 15:14:17;;;;;;;5.47;4.97;;;;;;;27.14;26.75;98970.91;2618672;54;20042;-67
2022/06/28 15:16:49;;;;;;;1.35;1.20;;;;;;;27.26;26.74;98972.34;2619581;54;20034;-67
2022/06/28 15:19:19;;;;;;;1.13;1.02;;;;;;;27.30;26.59;98971.47;2618297;54;20046;-66
2022/06/28 15:32:51;;;;;;;3.80;1.33;;;;;;;27.11;26.43;98935.47;2618834;54;20102;-66
2022/06/28 15:35:27;;;;;;;1.80;1.00;;;;;;;26.96;26.68;98930.25;2618914;54;20545;-68
2022/06/28 15:37:57;;;;;;;1.67;1.10;;;;;;;26.82;27.25;98932.91;2618549;54;20030;-68
2022/06/28 15:40:26;;;;;;;2.35;0.90;;;;;;;26.80;27.20;98933.22;2618788;54;20588;-68
2022/06/28 15:42:56;;;;;;;2.40;1.38;;;;;;;26.77;27.78;98928.38;2618508;54;20031;-68
2022/06/28 15:45:26;;;;;;;2.88;0.98;;;;;;;26.63;27.93;98936.47;2618640;54;20569;-68
2022/06/28 15:47:58;;;;;;;1.55;1.20;;;;;;;26.91;27.94;98923.00;2617993;51;20034;-68
2022/06/28 15:50:28;;;;;;;3.92;1.50;;;;;;;27.09;27.61;98922.16;2619040;54;20541;-69
2022/06/28 15:52:58;;;;;;;1.50;0.85;;;;;;;27.20;27.14;98917.38;2619030;54;20074;-67
2022/06/28 15:55:27;;;;;;;2.05;1.08;;;;;;;27.32;27.37;98916.91;2618120;54;20026;-67
2022/06/28 15:57:58;;;;;;;1.73;1.38;;;;;;;27.48;27.43;98912.00;2618585;54;20041;-68
2022/06/28 16:00:28;;;;;;;3.28;1.10;;;;;;;27.46;27.32;98904.13;2618751;54;20042;-66
2022/06/28 16:03:01;;;;;;;43.80;32.03;;;;;;;27.40;27.76;98903.44;2619391;54;20042;-68
2022/06/28 16:05:31;;;;;;;1.17;1.08;;;;;;;27.30;27.33;98902.81;2618405;54;20037;-68
2022/06/28 16:08:01;;;;;;;2.90;1.23;;;;;;;27.15;28.25;98903.91;2618936;54;20034;-66
2022/06/28 16:10:32;;;;;;;2.47;0.85;;;;;;;27.05;28.03;98895.91;2618907;47;20035;-68
2022/06/28 16:13:03;;;;;;;3.20;1.00;;;;;;;26.88;27.90;98902.72;2622965;54;20026;-67
2022/06/28 16:15:35;;;;;;;1.00;0.90;;;;;;;26.75;28.68;98892.63;2623335;54;20046;-68
2022/06/28 16:18:09;;;;;;;2.50;1.00;;;;;;;26.57;28.68;98899.69;2624318;54;20576;-67
2022/06/28 16:20:43;;;;;;;2.03;0.95;;;;;;;26.46;28.64;98902.88;2624593;54;20045;-67
2022/06/28 16:23:14;;;;;;;2.25;1.40;;;;;;;26.28;28.96;98902.53;2624019;54;20030;-68
2022/06/28 16:25:43;;;;;;;2.65;1.00;;;;;;;26.21;29.12;98893.16;2624444;54;20544;-67
2022/06/28 16:28:21;;;;;;;1.15;1.05;;;;;;;26.09;29.25;98899.03;2623608;54;20050;-67
2022/06/28 16:30:51;;;;;;;1.20;0.93;;;;;;;26.00;29.62;98895.34;2623436;54;20038;-66
2022/06/28 16:33:26;;;;;;;6.70;1.10;;;;;;;25.93;30.19;98893.81;2622359;54;20034;-67
2022/06/28 16:35:56;;;;;;;1.15;0.82;;;;;;;26.09;29.44;98891.72;2619264;39;20135;-67
2022/06/28 16:38:26;;;;;;;1.35;1.13;;;;;;;26.21;29.55;98885.03;2618509;47;20034;-67
2022/06/28 16:40:56;;;;;;;1.13;0.90;;;;;;;26.25;29.68;98889.59;2618833;54;20034;-66
2022/06/28 16:43:26;;;;;;;1.92;1.35;;;;;;;26.30;29.38;98878.66;2618318;54;20046;-66
2022/06/28 16:45:56;;;;;;;2.08;0.90;;;;;;;26.32;29.41;98879.16;2619697;47;20041;-67
2022/06/28 16:48:28;;;;;;;1.48;1.20;;;;;;;26.41;29.26;98874.72;2617879;47;20647;-67
2022/06/28 16:50:59;;;;;;;3.42;1.08;;;;;;;26.32;29.61;98875.66;2617515;47;20034;-67
2022/06/28 16:53:31;;;;;;;1.50;1.23;;;;;;;26.22;29.79;98867.69;2618079;54;20046;-68
2022/06/28 16:56:01;;;;;;;2.67;1.10;;;;;;;26.25;30.56;98869.78;2617723;47;20027;-66